Stations météo

réclame
Mon MeteoGroup
Trollenhagen, Allemagne (10281): Température de l'air & dewpoint: 15.07.2019 19:00:00 - 21.07.2019 19:00:00 (CEST)Trollenhagen, Allemagne (10281): Température de l'air 5cm & Température de l'air -5cm: 15.07.2019 19:00:00 - 21.07.2019 19:00:00 (CEST)Trollenhagen, Allemagne (10281): Température de l'air -20cm & Température de l'air -100cm: 15.07.2019 19:00:00 - 21.07.2019 19:00:00 (CEST)Trollenhagen, Allemagne (10281): Vitesse du vent & gusts: 15.07.2019 19:00:00 - 21.07.2019 19:00:00 (CEST)Trollenhagen, Allemagne (10281): Direction du vent: 15.07.2019 19:00:00 - 21.07.2019 19:00:00 (CEST)Trollenhagen, Allemagne (10281): reduced air pressure: 15.07.2019 19:00:00 - 21.07.2019 19:00:00 (CEST)Trollenhagen, Allemagne (10281): Ensoleillement: 15.07.2019 19:00:00 - 21.07.2019 19:00:00 (CEST)Trollenhagen, Allemagne (10281): Quantités de précipitations: 15.07.2019 19:00:00 - 21.07.2019 19:00:00 (CEST)
Date & Time tt [°C] td [°C] tt 5cm [°C] tt -5cm [°C] tt -20cm [°C] tt -100cm [°C] ff [km/h] ff [knt] fx [km/h] fx [knt] dd ppp [hPa] sd [min] rr [mm]
21.07.2019 19:00:00 23,3 13,9 24,2 22,7 22,0 18,2 24 13 37 20 WNW 1018,6 47 0,0
21.07.2019 18:00:00 23,7 13,1 23,6 23,2 22,0 18,2 20 11 36 19 WNW 1018,0 29 0,0
21.07.2019 17:00:00 23,7 11,7 24,1 24,3 21,9 18,1 29 16 39 21 W 1017,8 25 0,0
21.07.2019 16:00:00 24,1 11,9 26,2 25,1 21,7 18,1 26 14 43 23 W 1017,7 44 0,0
21.07.2019 15:00:00 23,7 13,0 26,5 24,9 21,4 18,2 24 13 39 21 W 1017,5 28 0,0
21.07.2019 14:00:00 23,2 13,0 26,5 25,1 21,2 18,1 25 13 40 22 W 1017,4 20 0,0
21.07.2019 13:00:00 24,0 15,6 28,3 25,0 20,9 18,1 24 13 53 29 WSW 1016,6 28 0,0
21.07.2019 12:00:00 22,1 15,3 24,4 24,8 20,5 18,1 22 12 38 20 W 1016,4 34 0,0
21.07.2019 11:00:00 21,0 16,1 23,5 23,3 20,1 18,1 25 14 34 19 WSW 1016,1 27 0,0
21.07.2019 10:00:00 20,5 16,5 24,2 22,8 19,7 18,1 21 12 29 16 WSW 1015,3 41 0,0
21.07.2019 09:00:00 19,2 16,8 21,1 20,9 19,6 18,1 15 8 29 16 WSW 1014,7 8 0,0
21.07.2019 08:00:00 17,9 16,5 18,4 19,2 19,6 18,1 19 10 28 15 WSW 1014,6 0 0,0
21.07.2019 07:00:00 17,4 16,5 17,7 18,4 19,7 18,1 13 7 24 13 SW 1014,0 1 0,0
21.07.2019 06:00:00 17,0 16,3 16,7 18,0 19,8 18,1 14 8 25 14 SW 1013,7 0 0,0
21.07.2019 05:00:00 17,1 16,3 16,7 18,0 20,0 18,1 15 8 21 12 SW 1013,4 0 0,0
21.07.2019 04:00:00 17,0 16,8 16,9 18,1 20,2 18,1 10 6 16 9 WSW 1012,9 0 0,0
21.07.2019 03:00:00 16,7 16,6 16,2 18,0 20,5 18,1 6 4 15 8 WSW 1013,0 0 0,0
21.07.2019 02:00:00 17,1 16,9 16,7 18,4 20,8 18,1 14 8 18 10 ESE 1012,5 0 0,2
21.07.2019 01:00:00 17,2 16,9 17,0 18,7 21,1 18,1 5 3 14 7 SE 1013,3 0 4,8
21.07.2019 00:00:00 17,2 16,6 16,7 18,9 21,5 18,1 9 5 23 13 SSW 1014,4 0 2,3
20.07.2019 23:00:00 17,6 15,3 16,4 19,1 22,0 18,1 18 10 29 16 WNW 1013,1 0 0,0
20.07.2019 22:00:00 19,9 13,6 19,0 19,7 22,5 18,1 24 13 33 18 NW 1013,5 0 0,0
20.07.2019 21:00:00 21,8 12,1 20,7 20,9 22,9 18,1 26 14 45 24 WNW 1013,2 0 0,0
20.07.2019 20:00:00 26,8 12,1 25,2 22,9 23,2 18,1 8 5 26 14 SSE 1011,4 11 0,0
20.07.2019 19:00:00 28,0 12,0 27,7 25,2 23,2 18,1 15 8 33 18 SSW 1011,9 40 0,0
20.07.2019 18:00:00 28,1 12,0 28,4 26,0 23,2 18,1 12 6 29 15 S 1011,4 38 0,0
20.07.2019 17:00:00 27,8 12,4 28,7 27,4 22,9 18,1 14 8 28 15 SE 1012,0 47 0,0
20.07.2019 16:00:00 28,3 12,5 30,2 28,3 22,5 18,1 12 6 31 17 S 1012,8 56 0,0
20.07.2019 15:00:00 27,5 12,0 29,5 28,7 22,0 18,1 15 8 34 19 SSE 1013,2 56 0,0
20.07.2019 14:00:00 26,2 12,5 27,7 28,1 21,5 18,1 14 7 28 15 SE 1013,6 51 0,0
20.07.2019 13:00:00 26,4 13,7 29,4 27,3 20,8 18,1 14 8 27 15 SE 1014,0 44 0,0
20.07.2019 12:00:00 25,1 13,6 27,2 26,5 20,2 18,0 15 8 26 14 SE 1014,3 58 0,0
20.07.2019 11:00:00 23,4 14,9 26,1 25,4 19,5 18,0 13 7 23 12 SE 1014,8 60 0,0
20.07.2019 10:00:00 21,7 17,1 24,4 23,3 18,9 18,0 10 6 17 9 SE 1015,0 60 0,0
20.07.2019 09:00:00 19,6 16,5 21,4 20,5 18,6 18,0 9 5 14 8 ESE 1015,1 60 0,0
20.07.2019 08:00:00 18,4 15,7 17,9 18,4 18,6 18,0 8 4 10 6 E 1015,1 60 0,0
20.07.2019 07:00:00 15,8 15,3 16,0 16,0 18,8 18,0 0 0 5 3 N 1015,0 55 0,0
20.07.2019 06:00:00 13,6 13,6 11,4 14,9 19,1 18,0 4 2 6 3 SSE 1015,2 0 0,0
20.07.2019 05:00:00 13,4 13,4 11,0 15,3 19,5 18,0 4 2 7 4 SE 1015,1 0 0,0
20.07.2019 04:00:00 14,9 14,9 13,6 15,9 19,9 17,9 3 2 7 4 S 1015,2 0 0,0
20.07.2019 03:00:00 14,9 14,9 12,3 16,4 20,3 17,9 6 3 6 4 W 1015,0 0 0,0
20.07.2019 02:00:00 15,8 15,7 13,3 17,0 20,7 17,9 6 3 8 5 SW 1014,9 0 0,0
20.07.2019 01:00:00 16,1 15,9 13,7 17,4 21,1 17,9 5 3 7 4 WSW 1014,7 0 0,0
20.07.2019 00:00:00 16,2 16,2 13,9 18,0 21,5 17,9 5 3 8 5 WSW 1014,5 0 0,0
19.07.2019 23:00:00 16,5 16,1 14,0 18,6 22,0 17,9 4 2 7 4 WSW 1014,3 0 0,0
19.07.2019 22:00:00 16,9 16,8 15,4 19,8 22,5 17,9 4 2 10 5 W 1014,5 0 0,0
19.07.2019 21:00:00 17,8 16,2 16,9 21,3 22,8 17,9 5 3 9 5 W 1013,9 35 0,0
19.07.2019 20:00:00 18,3 16,3 19,2 21,8 23,5 17,9 5 3 15 8 ESE 1013,4 22 4,9
19.07.2019 19:00:00 17,4 16,8 17,2 21,1 24,2 17,9 13 7 29 16 ESE 1013,3 0 30,6
19.07.2019 18:00:00 21,4 14,6 22,0 28,5 24,1 17,8 20 11 29 16 ESE 1012,5 4 0,0
19.07.2019 17:00:00 24,7 12,4 30,7 31,7 23,6 17,8 10 5 20 11 NNW 1012,1 56 0,0
19.07.2019 16:00:00 24,8 13,7 34,4 30,6 23,2 17,8 15 8 31 17 NW 1012,5 51 0,0
19.07.2019 15:00:00 23,2 13,6 25,7 27,5 22,9 17,8 11 6 31 17 W 1012,6 1 0,0
19.07.2019 14:00:00 24,0 13,2 26,9 29,8 22,4 17,8 10 5 23 13 WSW 1012,4 11 0,0
19.07.2019 13:00:00 24,4 13,6 30,5 28,2 22,0 17,8 15 8 25 13 W 1012,5 13 0,0
19.07.2019 12:00:00 23,6 12,3 25,5 28,4 21,4 17,8 20 11 31 17 WSW 1012,3 21 0,0
19.07.2019 11:00:00 23,5 10,9 26,2 26,5 20,8 17,8 11 6 22 12 WSW 1012,2 1 0,0
19.07.2019 10:00:00 22,6 9,5 26,4 25,7 20,4 17,8 11 6 21 12 SW 1012,0 55 0,0
19.07.2019 09:00:00 21,9 9,5 25,4 22,9 20,1 17,7 10 5 15 8 S 1011,8 42 0,0
19.07.2019 08:00:00 20,1 9,1 21,8 20,7 20,1 17,7 9 5 15 8 SSE 1011,5 59 0,0
19.07.2019 07:00:00 17,9 9,4 18,4 18,0 20,3 17,7 4 2 10 5 S 1011,5 16 0,0
19.07.2019 06:00:00 16,2 9,3 12,7 17,7 20,6 17,7 5 3 10 6 SE 1011,5 0 0,0
19.07.2019 05:00:00 16,6 9,3 14,2 18,3 20,9 17,7 5 3 10 6 ESE 1011,6 0 0,0
19.07.2019 04:00:00 16,2 10,0 14,2 18,8 21,3 17,7 9 5 11 6 E 1011,7 0 0,0
19.07.2019 03:00:00 16,6 10,8 15,5 19,2 21,6 17,7 6 3 11 6 E 1011,9 0 0,0
19.07.2019 02:00:00 16,9 11,1 15,9 19,3 22,0 17,7 10 5 14 8 ESE 1012,0 0 0,0
19.07.2019 01:00:00 17,0 11,4 15,7 19,6 22,5 17,7 11 6 19 10 ESE 1012,2 0 0,0
19.07.2019 00:00:00 16,7 11,9 15,3 20,4 23,1 17,6 13 7 19 10 E 1012,1 0 0,0
18.07.2019 23:00:00 16,2 12,2 14,7 21,4 23,6 17,6 16 9 19 10 E 1012,1 0 0,0
18.07.2019 22:00:00 18,4 11,9 17,2 23,0 24,1 17,6 16 9 22 12 E 1011,9 0 0,0
18.07.2019 21:00:00 21,1 11,8 20,3 24,9 24,5 17,6 17 9 29 15 ENE 1011,6 1 0,0
18.07.2019 20:00:00 22,7 9,4 22,0 26,9 24,7 17,6 9 5 13 7 ENE 1011,4 15 0,0
18.07.2019 19:00:00 25,0 6,9 26,7 28,9 24,8 17,6 6 3 11 6 ESE 1011,3 11 0,0
18.07.2019 18:00:00 24,7 6,3 26,4 30,5 24,7 17,6 6 4 18 10 E 1011,5 1 0,0
18.07.2019 17:00:00 24,4 6,6 26,2 33,3 24,2 17,6 7 4 25 14 SSE 1011,7 40 0,0
18.07.2019 16:00:00 25,5 6,7 31,5 35,4 23,3 17,7 11 6 25 14 SSW 1012,0 60 0,0
18.07.2019 15:00:00 25,9 7,9 34,9 34,7 22,3 17,7 8 4 24 13 NW 1012,3 60 0,0
18.07.2019 14:00:00 24,9 8,2 31,6 32,7 21,3 17,7 10 6 26 14 SE 1012,6 54 0,0
18.07.2019 13:00:00 23,5 8,9 30,1 31,1 20,3 17,7 9 5 24 13 E 1012,8 57 0,0
18.07.2019 12:00:00 22,8 9,9 29,2 29,1 19,3 17,7 11 6 27 15 ESE 1013,2 59 0,0
18.07.2019 11:00:00 22,3 10,4 27,4 25,0 18,6 17,7 7 4 21 12 E 1013,4 47 0,0
18.07.2019 10:00:00 20,7 10,4 25,4 23,3 18,0 17,6 9 5 14 8 ESE 1013,5 60 0,0
18.07.2019 09:00:00 18,8 11,0 22,1 20,1 17,6 17,6 6 3 11 6 SSE 1013,7 60 0,0
18.07.2019 08:00:00 16,4 10,3 18,7 17,1 17,6 17,6 6 3 10 5 S 1013,7 60 0,0
18.07.2019 07:00:00 11,8 9,7 14,4 14,7 17,8 17,6 4 2 9 5 WSW 1013,8 60 0,0
18.07.2019 06:00:00 11,1 9,0 8,4 13,6 18,2 17,6 4 2 9 5 SE 1013,8 14 0,0
18.07.2019 05:00:00 9,3 8,2 7,0 13,8 18,6 17,6 5 3 6 3 E 1013,9 0 0,0
18.07.2019 04:00:00 9,6 7,5 6,2 14,4 19,0 17,6 5 3 10 5 W 1013,9 0 0,0
18.07.2019 03:00:00 10,7 9,0 7,9 15,0 19,5 17,6 4 2 5 3 ESE 1014,0 0 0,0
18.07.2019 02:00:00 12,0 9,5 7,5 15,7 20,0 17,6 3 1 6 3 E 1014,3 0 0,0
18.07.2019 01:00:00 12,9 9,9 8,1 16,4 20,4 17,6 5 3 8 5 ESE 1014,3 0 0,0
18.07.2019 00:00:00 14,1 10,1 9,4 17,4 21,0 17,6 5 3 7 4 ESE 1014,1 0 0,0
17.07.2019 23:00:00 13,6 9,9 10,7 18,3 21,5 17,6 9 5 12 7 ENE 1014,2 0 0,0
17.07.2019 22:00:00 15,5 10,2 11,7 19,9 21,9 17,6 9 5 15 8 ENE 1014,1 0 0,0
17.07.2019 21:00:00 17,4 10,8 16,3 21,9 22,2 17,6 13 7 20 11 ENE 1013,8 50 0,0
17.07.2019 20:00:00 19,4 11,5 19,0 23,5 22,4 17,6 16 9 21 11 ENE 1013,2 29 0,0
17.07.2019 19:00:00 20,6 11,4 20,6 24,8 22,5 17,6 15 8 25 13 ENE 1013,1 0 0,0
17.07.2019 18:00:00 22,1 9,4 23,6 26,5 22,4 17,7 16 9 26 14 N 1013,2 5 0,0
17.07.2019 17:00:00 22,3 9,5 25,5 28,5 22,1 17,7 13 7 30 16 N 1013,3 18 0,0
17.07.2019 16:00:00 22,3 10,2 28,4 28,5 21,6 17,7 10 6 24 13 NW 1013,5 15 0,0
17.07.2019 15:00:00 22,0 9,5 29,9 29,1 20,9 17,7 16 9 33 18 NW 1013,4 29 0,0
17.07.2019 14:00:00 22,4 10,5 28,8 27,8 20,2 17,7 18 10 26 14 NW 1013,6 18 0,0
17.07.2019 13:00:00 22,0 10,3 31,1 27,0 19,6 17,7 15 8 24 13 NW 1013,8 26 0,0
17.07.2019 12:00:00 20,1 11,2 24,8 24,7 18,9 17,7 13 7 24 13 WNW 1013,8 18 0,0
17.07.2019 11:00:00 19,5 11,4 25,0 24,5 18,2 17,7 14 8 23 12 WNW 1013,9 41 0,0
17.07.2019 10:00:00 18,4 12,4 24,8 22,4 17,7 17,7 13 7 23 12 W 1014,1 57 0,0
17.07.2019 09:00:00 16,4 12,7 21,4 19,8 17,4 17,7 16 9 23 13 WNW 1014,1 43 0,0
17.07.2019 08:00:00 14,7 12,6 16,7 16,6 17,4 17,7 16 8 23 12 WNW 1014,3 1 0,0
17.07.2019 07:00:00 13,6 12,5 14,1 15,2 17,5 17,7 11 6 16 9 W 1014,2 20 0,0
17.07.2019 06:00:00 12,5 11,9 11,3 14,7 17,7 17,7 13 7 19 11 W 1014,1 1 0,0
17.07.2019 05:00:00 13,0 12,2 12,3 15,2 18,0 17,7 12 7 17 9 W 1013,9 0 0,0
17.07.2019 04:00:00 13,2 12,0 12,1 15,4 18,2 17,7 14 8 31 17 WNW 1013,9 0 0,0
17.07.2019 03:00:00 13,2 11,7 12,7 15,2 18,5 17,7 16 9 23 12 W 1014,1 0 0,0
17.07.2019 02:00:00 12,7 11,3 10,7 15,2 18,9 17,8 13 7 19 10 W 1014,1 0 0,0
17.07.2019 01:00:00 13,0 11,3 10,9 15,8 19,2 17,8 14 8 20 11 W 1013,9 0 0,0
17.07.2019 00:00:00 12,9 11,0 9,9 16,7 19,6 17,8 11 6 16 9 W 1013,9 0 0,0
16.07.2019 23:00:00 15,2 11,2 13,3 17,7 19,9 17,8 8 4 11 6 W 1013,8 0 0,0
16.07.2019 22:00:00 14,7 10,4 11,4 18,5 20,2 17,8 9 5 19 10 WNW 1013,6 0 0,0
16.07.2019 21:00:00 17,3 10,6 15,8 20,2 20,4 17,8 16 9 34 18 WNW 1013,2 40 0,0
16.07.2019 20:00:00 18,5 11,2 19,2 21,9 20,4 17,8 24 13 35 19 WNW 1013,2 35 0,0
16.07.2019 19:00:00 18,8 11,4 20,0 22,7 20,3 17,8 25 13 37 20 WNW 1012,9 4 0,0
16.07.2019 18:00:00 19,2 11,2 21,6 23,8 20,0 17,8 30 16 44 24 WNW 1012,6 23 0,0
16.07.2019 17:00:00 20,2 11,3 24,7 24,4 19,6 17,8 31 17 41 22 WNW 1012,4 31 0,0
16.07.2019 16:00:00 20,8 10,7 26,4 23,0 19,2 17,8 26 14 39 21 WNW 1012,3 13 0,0
16.07.2019 15:00:00 20,4 10,3 24,4 22,5 18,8 17,8 29 15 38 21 W 1012,3 9 0,0
16.07.2019 14:00:00 18,3 10,5 19,7 21,8 18,4 17,8 26 14 36 20 W 1012,6 3 0,0
16.07.2019 13:00:00 17,3 11,0 19,8 20,0 18,3 17,8 21 11 35 19 W 1013,0 0 0,0
16.07.2019 12:00:00 14,9 11,0 15,6 17,8 18,3 17,8 27 14 39 21 W 1013,4 0 0,0
16.07.2019 11:00:00 15,0 11,6 15,9 17,9 18,2 17,8 23 13 37 20 W 1013,2 0 0,0
16.07.2019 10:00:00 15,6 11,7 16,7 18,1 18,2 17,8 22 12 32 17 W 1012,8 0 0,0
16.07.2019 09:00:00 14,4 11,9 15,3 17,1 18,2 17,8 23 12 32 17 W 1012,9 0 0,0
16.07.2019 08:00:00 14,1 12,0 14,8 16,7 18,3 17,8 21 12 30 16 W 1012,8 0 0,0
16.07.2019 07:00:00 14,1 11,4 14,3 16,6 18,4 17,8 21 12 34 18 W 1012,7 0 0,0
16.07.2019 06:00:00 14,1 11,3 14,0 16,5 18,6 17,8 21 11 29 16 W 1012,5 0 0,0
16.07.2019 05:00:00 14,1 11,0 14,0 16,6 18,8 17,8 19 10 26 14 W 1012,7 0 0,0
16.07.2019 04:00:00 14,2 10,4 14,0 16,7 19,0 17,8 19 10 29 16 WSW 1012,9 0 0,0
16.07.2019 03:00:00 14,3 10,2 14,0 16,9 19,2 17,8 19 10 24 13 W 1013,0 0 0,0
16.07.2019 02:00:00 14,4 9,9 14,1 17,2 19,4 17,8 17 9 29 15 W 1013,3 0 0,0
16.07.2019 01:00:00 14,7 9,6 14,4 17,5 19,7 17,8 19 11 32 17 W 1013,5 0 0,0
16.07.2019 00:00:00 14,8 8,5 14,5 17,8 19,9 17,8 16 8 27 15 WSW 1013,6 0 0,0
15.07.2019 23:00:00 15,1 7,8 14,7 18,2 20,2 17,8 19 10 35 19 W 1014,0 0 0,0
15.07.2019 22:00:00 15,6 8,3 15,2 18,9 20,5 17,8 22 12 30 16 W 1014,2 0 0,0
15.07.2019 21:00:00 16,0 8,9 15,7 19,7 20,7 17,8 16 8 25 14 WSW 1013,9 0 0,0
15.07.2019 20:00:00 16,1 8,5 16,5 20,4 20,9 17,8 21 11 36 20 WSW 1014,1 0 0,0
15.07.2019 19:00:00 16,3 9,3 16,9 21,2 21,0 17,8 23 12 35 19 WSW 1014,4 0 0,0

tt = Température de l'air
td = dewpoint
tt 5cm = Température de l'air 5cm
tt -5cm = Température de l'air -5cm
tt -20cm = Température de l'air -20cm
tt -100cm = Température de l'air -100cm
ff = Vitesse du vent
fx = gusts
dd = Direction du vent
ppp = reduced air pressure
sd = Ensoleillement
rr = Quantités de précipitations

stations d'obs. à proximité